Bango, Nevada Weather observations

Data are for 10 minute period ending at time listed.
 Day   Time    Ave.   Ave.  Ave.  Vector   Max.   Stn.    Total    Solar   Ave.  
  of    of     Air    Rel.  Wind   Wind    Wind   Baro.  Precip.   Rad.    Soil  
Year   Day     Temp.  Hum.  Speed  Dir.    Gust   Pres.                    Temp. 
2016   (PST)    F      %     mph   deg.    mph     mb.     in.     W/m2     F    
--------------------------------------------------------------------------------- 
 207   11:30   92.3     6    8.2   322     15.8   876.1    0.00    1035    31.4  
 207   11:40   91.7     6    7.1   292     15.8   876.1    0.00    1038    31.5  
 207   11:50   92.0     6    1.0   160      6.0   876.0    0.00    1050    31.6  
 207   12:00   93.5     6    5.1   226     10.5   875.9    0.00    1053    31.7  
 207   12:10   93.7     5    4.3   287     12.3   875.8    0.00    1023    31.8  
 207   12:20   94.7     4    4.3   259     14.9   875.7    0.00    1041    32.0  
 207   12:30   94.2     4    3.6   219     13.2   875.6    0.00    1033    32.1  
 207   12:40   94.2     4    2.5   153     11.4   875.5    0.00    1031    32.2  
 207   12:50   95.9     4    4.1   254     13.2   875.3    0.00    1017    32.4  
 207   13:00   97.2     4    2.7   231     14.1   875.2    0.00    1012    32.6  
 207   13:10   95.9     4    4.9   188     12.3   875.1    0.00    1007    32.8  
 207   13:20   96.0     4    8.1   268     14.1   875.0    0.00     980    32.9  
 207   13:30   95.9     4    6.1   284     12.3   874.9    0.00     965    33.1  
 207   13:40   95.5     4    5.4     4     12.3   874.8    0.00     943    33.3  
 207   13:50   95.8     4    4.3   326     12.3   874.7    0.00     914    33.5  
 207   14:00   96.5     4    2.9   142     11.4   874.5    0.00     918    33.7  
 207   14:10   97.0     4    5.2   114     10.5   874.3    0.00     883    33.8  
 207   14:20   96.4     4    6.5     2     14.9   874.2    0.00     835    34.0  
 207   14:30   96.5     4    4.3    23      9.6   874.2    0.00     831    34.2  
 207   14:40   98.1     4    7.2    57     19.4   873.9    0.00     812    34.4  
 207   14:50   98.0     4    7.5   238     12.3   874.0    0.00     768    34.6  
 207   15:00   97.9     4    8.5   290     15.8   874.0    0.00     761    34.8  
 207   15:10   97.3     4    5.4    13     12.3   873.9    0.00     746    35.0  
 207   15:20   98.0     4    8.7   355     14.9   873.7    0.00     712    35.1  
 207   15:30   98.5     4    7.9   318     15.8   873.6    0.00     688    35.3  
 207   15:40   99.1     4    7.8   267     14.9   873.6    0.00     652    35.5  
 207   15:50   99.2     5    4.3     1     10.5   873.4    0.00     623    35.7  
 207   16:00   99.0     5    9.1   281     14.9   873.4    0.00     591    35.8  
 207   16:10   98.4     5    9.4   259     14.9   873.4    0.00     559    36.0  
 207   16:20   98.8     5    4.3   289     12.3   873.5    0.00     537    36.1  
 207   16:30   98.5     5    7.9   292     18.5   873.5    0.00     524    36.3  
 207   16:40   98.7     5    8.2   261     12.3   873.4    0.00     465    36.4  
 207   16:50   98.5     5   10.1   290     19.4   873.4    0.00     437    36.6  
 207   17:00   98.1     5   12.7   276     24.8   873.4    0.00     417    36.7  
 207   17:10   98.1     5   12.1   281     20.3   873.4    0.00     361    36.8  
 207   17:20   97.7     6   12.1   290     18.5   873.4    0.00     340    36.9  
 207   17:30   97.0     6   13.5   297     18.5   873.4    0.00     297    37.0  
 207   17:40   96.7     6   15.3   279     23.9   873.5    0.00     266    37.1  
 207   17:50   96.4     6   13.3   289     21.2   873.5    0.00     233    37.2  
 207   18:00   95.8     6   14.7   304     21.2   873.6    0.00     199    37.2  
 207   18:10   95.4     6   13.4   304     20.3   873.7    0.00     165    37.3  
 207   18:20   94.7     7   14.2   317     19.4   873.8    0.00     133    37.3  
 207   18:30   93.9     8   13.9   323     19.4   873.9    0.00     106    37.4  
 207   18:40   93.2     8   14.0   323     19.4   874.1    0.00      75    37.4  
 207   18:50   92.4     8   13.3   317     18.5   874.2    0.00      48    37.5  
 207   19:00   91.6     9   13.9   310     17.6   874.3    0.00      24    37.5  
 207   19:10   90.8     9   12.8   307     18.5   874.4    0.00      12    37.5  
 207   19:20   89.7     9   11.2   303     16.7   874.5    0.00       6    37.5  
 207   19:30   89.1     9   12.5   304     18.5   874.6    0.00       2    37.5  
 207   19:40   88.7    10   14.2   300     18.5   874.7    0.00       1    37.5  
 207   19:50   88.1    10   14.1   298     20.3   874.8    0.00       0    37.5  
 207   20:00   87.5    10   14.1   300     18.5   875.0    0.00       0    37.5  
 207   20:10   87.0    11   14.9   299     21.2   875.2    0.00       0    37.4  
 207   20:20   87.0    11   13.7   296     19.4   875.3    0.00       0    37.4  
 207   20:30   86.8    12   15.8   296     21.2   875.4    0.00       0    37.4  
 207   20:40   86.7    12   15.7   296     23.9   875.5    0.00       0    37.3  
 207   20:50   86.6    12   16.8   289     23.9   875.5    0.00       0    37.3  
 207   21:00   85.6    13   15.6   287     21.2   875.5    0.00       0    37.2  
 207   21:10   85.2    14   15.8   282     19.4   875.6    0.00       0    37.1  
 207   21:20   84.6    14   15.2   280     20.3   875.6    0.00       0    37.1  
 207   21:30   83.8    16   14.6   276     19.4   875.6    0.00       0    37.0  
 207   21:40   83.4    16   15.3   277     20.3   875.6    0.00       0    36.9  
 207   21:50   83.3    16   16.1   282     23.9   875.6    0.00       0    36.9  
 207   22:00   83.0    17   15.2   283     20.3   875.6    0.00       0    36.8  
 207   22:10   82.7    17   16.4   284     22.1   875.6    0.00       0    36.7  
 207   22:20   82.9    16   17.2   281     23.9   875.6    0.00       0    36.6  
 207   22:30   82.5    16   16.5   276     21.2   875.7    0.00       0    36.6  
 207   22:40   81.5    17   17.8   273     23.0   875.6    0.00       0    36.5  
 207   22:50   81.3    16   18.6   268     23.0   875.6    0.00       0    36.4  
 207   23:00   80.8    16   17.0   272     21.2   875.7    0.00       0    36.3  
 207   23:10   80.9    15   16.7   272     23.0   875.7    0.00       0    36.2  
 207   23:20   80.9    14   13.4   276     18.5   875.8    0.00       0    36.1  
 207   23:30   81.4    13   14.5   288     19.4   875.7    0.00       0    36.0  
 207   23:40   82.7    11   15.2   284     19.4   875.8    0.00       0    36.0  
 207   23:50   81.6    11   15.5   284     23.9   875.8    0.00       0    35.9  
 208    0:00   82.4    11   17.8   291     22.1   875.8    0.00       0    35.8  
 208    0:10   81.9    12   15.7   283     20.3   875.8    0.00       0    35.7  
 208    0:20   80.2    12   14.9   282     19.4   875.8    0.00       0    35.6  
 208    0:30   79.8    12   14.5   284     18.5   875.8    0.00       0    35.5  
 208    0:40   79.8    12   15.6   283     20.3   875.7    0.00       0    35.4  
 208    0:50   79.8    12   15.0   284     19.4   875.7    0.00       0    35.3  
 208    1:00   80.3    12   14.7   288     19.4   875.7    0.00       0    35.2  
 208    1:10   80.5    13   16.4   287     21.2   875.6    0.00       0    35.2  
 208    1:20   80.6    14   16.9   287     21.2   875.6    0.00       0    35.1  
 208    1:30   79.8    14   15.4   284     20.3   875.6    0.00       0    35.0  
 208    1:40   79.1    14   12.7   285     17.6   875.8    0.00       0    34.9  
 208    1:50   78.2    14    7.8   266     13.2   876.0    0.00       0    34.8  
 208    2:00   74.3    16    0.6   176      0.6   876.1    0.00       0    34.7  
 208    2:10   73.1    18    4.8   193      8.7   876.1    0.00       0    34.6  
 208    2:20   73.8    18    8.9   198     12.3   876.0    0.00       0    34.6  
 208    2:30   75.1    17    9.8   196     12.3   876.0    0.00       0    34.5  
 208    2:40   73.9    18    2.7   246     12.3   876.1    0.00       0    34.4  
 208    2:50   75.5    16    0.6   247      0.6   876.0    0.00       0    34.3  
 208    3:00   74.6    17    0.6   230      0.6   876.0    0.00       0    34.2  
 208    3:10   72.6    18    1.3   236      8.7   876.0    0.00       0    34.1  
 208    3:20   72.0    19    7.9   213     13.2   876.0    0.00       0    34.0  
 208    3:30   72.5    18    9.9   212     13.2   875.9    0.00       0    34.0  
 208    3:40   72.4    18    7.5   211     11.4   876.0    0.00       0    33.9  
 208    3:50   71.6    19    2.9   183      9.6   876.2    0.00       0    33.8  
 208    4:00   72.5    18    3.2   242      9.6   876.2    0.00       0    33.7  
 208    4:10   70.3    19    2.3   244      7.8   876.3    0.00       0    33.6  
 208    4:20   67.5    21    0.6   225      0.6   876.1    0.00       0    33.5  
 208    4:30   67.4    22    2.4   203     10.5   876.0    0.00       0    33.5  
 208    4:40   69.4    22    2.2   180      6.9   876.2    0.00       1    33.4  
 208    4:50   69.5    23    4.4   171      9.6   876.3    0.00       2    33.3  
 208    5:00   71.2    23    0.8   226      6.9   876.5    0.00       6    33.2  
 208    5:10   72.3    23    0.9   240      6.0   876.6    0.00      16    33.1  
 208    5:20   72.3    23    0.6   227      0.6   876.7    0.00      37    33.0  
 208    5:30   71.9    25    6.7   198     13.2   876.8    0.00      65    32.9  
 208    5:40   72.8    26    9.3   203     14.9   876.9    0.00     100    32.8  
 208    5:50   71.6    28    8.2   212     13.2   877.0    0.00     133    32.7  
 208    6:00   72.4    24    8.8   205     11.4   877.0    0.00     163    32.7  
 208    6:10   73.3    23    9.0   197     12.3   877.1    0.00     194    32.5  
 208    6:20   74.6    23    4.5   210     12.3   877.2    0.00     226    32.5  
 208    6:30   75.3    23    3.0   204      8.7   877.2    0.00     259    32.4  
 208    6:40   76.4    22    4.8   193     10.5   877.3    0.00     294    32.3  
 208    6:50   76.9    22    0.6   202      0.6   877.3    0.00     328    32.2  
 208    7:00   78.1    22    1.7   201     11.4   877.4    0.00     363    32.1  
 208    7:10   78.3    21    4.2   186     11.4   877.5    0.00     397    32.0  
 208    7:20   79.5    20    8.1   182     12.3   877.4    0.00     432    32.0  
 208    7:30   81.1    18    8.5   184     12.3   877.4    0.00     466    31.9  
 208    7:40   81.5    18    9.7   189     12.3   877.5    0.00     498    31.8  
 208    7:50   83.3    17    3.1   253     12.3   877.5    0.00     532    31.7  
 208    8:00   84.5    16    1.7   281      6.9   877.5    0.00     566    31.7  
 208    8:10   85.4    15    1.0   214      6.9   877.6    0.00     598    31.6  
 208    8:20   85.2    16    1.8   150     14.9   877.6    0.00     630    31.5  
 208    8:30   86.1    15    1.0   304      9.6   877.6    0.00     661    31.5  
 208    8:40   86.3    15    1.8   324     10.5   877.5    0.00     695    31.4  
 208    8:50   86.1    14    2.4   345      6.9   877.5    0.00     727    31.4  
 208    9:00   86.6    14    1.1    35      6.0   877.6    0.00     754    31.3  
 208    9:10   87.8    13    1.0    54      4.2   877.6    0.00     780    31.3  
 208    9:20   87.4    13    0.8    43      6.9   877.5    0.00     807    31.3  
 208    9:30   87.7    13    1.3    67      9.6   877.5    0.00     832    31.3  
 208    9:40   89.1    13    0.6   134      0.6   877.4    0.00     852    31.3  
 208    9:50   89.3    13    0.6   134      0.6   877.4    0.00     874    31.3  
 208   10:00   89.7    13    0.6   134      1.5   877.3    0.00     898    31.3  
 208   10:10   89.9    12    1.3   122      7.8   877.3    0.00     920    31.3  
 208   10:20   90.6    12    0.6   203      1.5   877.2    0.00     934    31.4  
 208   10:30   89.9    12    1.2   208      8.7   877.0    0.00     950    31.4  
 208   10:40   90.9    12    0.6   203      1.5   877.0    0.00     962    31.5  
 208   10:50   91.1    12    0.8   152      6.9   876.8    0.00     985    31.5  
 208   11:00   91.1    12    0.8   139      5.1   876.7    0.00     992    31.6  
 208   11:10   92.4    12    0.8   124      7.8   876.6    0.00     985    31.7  
 208   11:20   92.5    11    0.6    74      1.5   876.4    0.00     996    31.8  

Return to Garden Spring, Nevada graphs page.


Western Regional Climate Center,wrcc@dri.edu